sensor_id;sensor_type;location;lat;lon;timestamp;P1;durP1;ratioP1;P2;durP2;ratioP2
41689;SDS011;27372;42.658;23.256;2023-11-18T00:01:05;1.00;;;1.00;;
41689;SDS011;27372;42.658;23.256;2023-11-18T00:03:30;0.98;;;0.98;;
41689;SDS011;27372;42.658;23.256;2023-11-18T00:05:56;1.00;;;1.00;;
41689;SDS011;27372;42.658;23.256;2023-11-18T00:08:21;1.27;;;1.17;;
41689;SDS011;27372;42.658;23.256;2023-11-18T00:10:46;1.05;;;0.93;;
41689;SDS011;27372;42.658;23.256;2023-11-18T00:13:12;1.00;;;1.00;;
41689;SDS011;27372;42.658;23.256;2023-11-18T00:15:38;2.63;;;1.10;;
41689;SDS011;27372;42.658;23.256;2023-11-18T00:18:03;1.92;;;1.20;;
41689;SDS011;27372;42.658;23.256;2023-11-18T00:20:29;2.00;;;1.05;;
41689;SDS011;27372;42.658;23.256;2023-11-18T00:22:56;1.42;;;1.10;;
41689;SDS011;27372;42.658;23.256;2023-11-18T00:25:21;1.13;;;1.02;;
41689;SDS011;27372;42.658;23.256;2023-11-18T00:27:47;1.20;;;1.10;;
41689;SDS011;27372;42.658;23.256;2023-11-18T00:30:12;1.20;;;1.10;;
41689;SDS011;27372;42.658;23.256;2023-11-18T00:32:38;1.38;;;1.17;;
41689;SDS011;27372;42.658;23.256;2023-11-18T00:35:04;1.30;;;1.05;;
41689;SDS011;27372;42.658;23.256;2023-11-18T00:37:30;1.00;;;1.00;;
41689;SDS011;27372;42.658;23.256;2023-11-18T00:39:56;0.80;;;0.80;;
41689;SDS011;27372;42.658;23.256;2023-11-18T00:42:22;0.98;;;0.98;;
41689;SDS011;27372;42.658;23.256;2023-11-18T00:44:47;1.20;;;1.13;;
41689;SDS011;27372;42.658;23.256;2023-11-18T00:47:13;0.98;;;0.82;;
41689;SDS011;27372;42.658;23.256;2023-11-18T00:49:38;1.30;;;1.20;;
41689;SDS011;27372;42.658;23.256;2023-11-18T00:52:05;1.73;;;1.20;;
41689;SDS011;27372;42.658;23.256;2023-11-18T00:54:31;0.95;;;0.95;;
41689;SDS011;27372;42.658;23.256;2023-11-18T00:56:56;1.30;;;1.20;;
41689;SDS011;27372;42.658;23.256;2023-11-18T00:59:22;1.50;;;1.40;;
41689;SDS011;27372;42.658;23.256;2023-11-18T01:01:47;1.30;;;1.20;;
41689;SDS011;27372;42.658;23.256;2023-11-18T01:04:14;2.65;;;1.20;;
41689;SDS011;27372;42.658;23.256;2023-11-18T01:06:39;1.63;;;1.40;;
41689;SDS011;27372;42.658;23.256;2023-11-18T01:09:05;1.50;;;1.40;;
41689;SDS011;27372;42.658;23.256;2023-11-18T01:11:32;1.88;;;1.35;;
41689;SDS011;27372;42.658;23.256;2023-11-18T01:13:58;1.30;;;1.20;;
41689;SDS011;27372;42.658;23.256;2023-11-18T01:16:23;1.52;;;1.40;;
41689;SDS011;27372;42.658;23.256;2023-11-18T01:18:49;1.67;;;1.50;;
41689;SDS011;27372;42.658;23.256;2023-11-18T01:21:14;1.52;;;1.23;;
41689;SDS011;27372;42.658;23.256;2023-11-18T01:23:42;1.40;;;1.30;;
41689;SDS011;27372;42.658;23.256;2023-11-18T01:26:07;1.40;;;1.30;;
41689;SDS011;27372;42.658;23.256;2023-11-18T01:28:33;1.83;;;1.65;;
41689;SDS011;27372;42.658;23.256;2023-11-18T01:31:04;3.13;;;1.50;;
41689;SDS011;27372;42.658;23.256;2023-11-18T01:33:30;1.92;;;1.60;;
41689;SDS011;27372;42.658;23.256;2023-11-18T01:35:57;2.58;;;2.10;;
41689;SDS011;27372;42.658;23.256;2023-11-18T01:38:23;1.40;;;1.30;;
41689;SDS011;27372;42.658;23.256;2023-11-18T01:40:48;2.08;;;1.65;;
41689;SDS011;27372;42.658;23.256;2023-11-18T01:43:14;1.58;;;1.48;;
41689;SDS011;27372;42.658;23.256;2023-11-18T01:45:42;3.17;;;1.60;;
41689;SDS011;27372;42.658;23.256;2023-11-18T01:48:08;4.40;;;1.70;;
41689;SDS011;27372;42.658;23.256;2023-11-18T01:50:35;1.48;;;1.30;;
41689;SDS011;27372;42.658;23.256;2023-11-18T01:53:02;1.92;;;1.35;;
41689;SDS011;27372;42.658;23.256;2023-11-18T01:55:29;1.77;;;1.50;;
41689;SDS011;27372;42.658;23.256;2023-11-18T01:57:54;5.22;;;2.28;;
41689;SDS011;27372;42.658;23.256;2023-11-18T02:00:21;4.18;;;2.10;;
41689;SDS011;27372;42.658;23.256;2023-11-18T02:02:48;1.80;;;1.70;;
41689;SDS011;27372;42.658;23.256;2023-11-18T02:05:14;1.58;;;1.48;;
41689;SDS011;27372;42.658;23.256;2023-11-18T02:07:40;1.83;;;1.70;;
41689;SDS011;27372;42.658;23.256;2023-11-18T02:10:06;1.70;;;1.60;;
41689;SDS011;27372;42.658;23.256;2023-11-18T02:12:38;1.95;;;1.55;;
41689;SDS011;27372;42.658;23.256;2023-11-18T02:15:25;1.73;;;1.50;;
41689;SDS011;27372;42.658;23.256;2023-11-18T02:17:52;2.20;;;1.83;;
41689;SDS011;27372;42.658;23.256;2023-11-18T02:20:19;2.47;;;1.63;;
41689;SDS011;27372;42.658;23.256;2023-11-18T02:22:46;2.40;;;2.15;;
41689;SDS011;27372;42.658;23.256;2023-11-18T02:25:15;1.75;;;1.65;;
41689;SDS011;27372;42.658;23.256;2023-11-18T02:27:42;2.42;;;1.98;;
41689;SDS011;27372;42.658;23.256;2023-11-18T02:30:08;2.28;;;2.00;;
41689;SDS011;27372;42.658;23.256;2023-11-18T02:32:55;2.25;;;1.98;;
41689;SDS011;27372;42.658;23.256;2023-11-18T02:35:30;3.10;;;2.13;;
41689;SDS011;27372;42.658;23.256;2023-11-18T02:38:02;2.53;;;1.90;;
41689;SDS011;27372;42.658;23.256;2023-11-18T02:40:33;1.85;;;1.65;;
41689;SDS011;27372;42.658;23.256;2023-11-18T02:43:05;2.53;;;2.15;;
41689;SDS011;27372;42.658;23.256;2023-11-18T02:45:34;2.17;;;1.90;;
41689;SDS011;27372;42.658;23.256;2023-11-18T02:48:01;2.30;;;1.73;;
41689;SDS011;27372;42.658;23.256;2023-11-18T02:50:27;3.33;;;2.00;;
41689;SDS011;27372;42.658;23.256;2023-11-18T02:52:54;2.53;;;2.10;;
41689;SDS011;27372;42.658;23.256;2023-11-18T02:55:20;1.92;;;1.73;;
41689;SDS011;27372;42.658;23.256;2023-11-18T02:57:47;2.35;;;2.15;;
41689;SDS011;27372;42.658;23.256;2023-11-18T03:00:12;1.77;;;1.63;;
41689;SDS011;27372;42.658;23.256;2023-11-18T03:02:44;2.05;;;1.77;;
41689;SDS011;27372;42.658;23.256;2023-11-18T03:05:11;3.75;;;2.00;;
41689;SDS011;27372;42.658;23.256;2023-11-18T03:07:43;2.80;;;2.28;;
41689;SDS011;27372;42.658;23.256;2023-11-18T03:10:09;2.92;;;2.25;;
41689;SDS011;27372;42.658;23.256;2023-11-18T03:12:37;3.78;;;2.38;;
41689;SDS011;27372;42.658;23.256;2023-11-18T03:15:06;3.45;;;2.67;;
41689;SDS011;27372;42.658;23.256;2023-11-18T03:17:34;2.80;;;2.22;;
41689;SDS011;27372;42.658;23.256;2023-11-18T03:20:00;2.72;;;2.10;;
41689;SDS011;27372;42.658;23.256;2023-11-18T03:22:25;2.30;;;2.00;;
41689;SDS011;27372;42.658;23.256;2023-11-18T03:24:51;3.65;;;2.60;;
41689;SDS011;27372;42.658;23.256;2023-11-18T03:27:16;2.17;;;1.70;;
41689;SDS011;27372;42.658;23.256;2023-11-18T03:29:43;3.30;;;2.60;;
41689;SDS011;27372;42.658;23.256;2023-11-18T03:32:11;3.10;;;2.42;;
41689;SDS011;27372;42.658;23.256;2023-11-18T03:34:37;2.97;;;2.30;;
41689;SDS011;27372;42.658;23.256;2023-11-18T03:37:03;2.78;;;2.00;;
41689;SDS011;27372;42.658;23.256;2023-11-18T03:39:28;4.13;;;2.53;;
41689;SDS011;27372;42.658;23.256;2023-11-18T03:41:53;2.25;;;1.88;;
41689;SDS011;27372;42.658;23.256;2023-11-18T03:44:22;2.47;;;2.20;;
41689;SDS011;27372;42.658;23.256;2023-11-18T03:46:48;2.83;;;2.30;;
41689;SDS011;27372;42.658;23.256;2023-11-18T03:49:14;3.45;;;2.50;;
41689;SDS011;27372;42.658;23.256;2023-11-18T03:51:40;2.20;;;1.88;;
41689;SDS011;27372;42.658;23.256;2023-11-18T03:54:05;4.50;;;2.10;;
41689;SDS011;27372;42.658;23.256;2023-11-18T03:56:33;2.13;;;1.80;;
41689;SDS011;27372;42.658;23.256;2023-11-18T03:58:59;3.10;;;2.63;;
41689;SDS011;27372;42.658;23.256;2023-11-18T04:01:25;7.10;;;2.90;;
41689;SDS011;27372;42.658;23.256;2023-11-18T04:03:54;3.65;;;3.08;;
41689;SDS011;27372;42.658;23.256;2023-11-18T04:06:22;3.53;;;2.45;;
41689;SDS011;27372;42.658;23.256;2023-11-18T04:08:49;3.83;;;2.78;;
41689;SDS011;27372;42.658;23.256;2023-11-18T04:11:15;2.72;;;2.20;;
41689;SDS011;27372;42.658;23.256;2023-11-18T04:13:40;3.08;;;2.50;;
41689;SDS011;27372;42.658;23.256;2023-11-18T04:16:15;3.33;;;2.53;;
41689;SDS011;27372;42.658;23.256;2023-11-18T04:18:41;4.65;;;2.55;;
41689;SDS011;27372;42.658;23.256;2023-11-18T04:21:08;3.03;;;2.70;;
41689;SDS011;27372;42.658;23.256;2023-11-18T04:23:36;2.88;;;2.40;;
41689;SDS011;27372;42.658;23.256;2023-11-18T04:28:29;3.67;;;2.92;;
41689;SDS011;27372;42.658;23.256;2023-11-18T04:30:55;3.72;;;2.60;;
41689;SDS011;27372;42.658;23.256;2023-11-18T04:33:20;3.58;;;2.60;;
41689;SDS011;27372;42.658;23.256;2023-11-18T04:35:46;3.70;;;2.95;;
41689;SDS011;27372;42.658;23.256;2023-11-18T04:38:12;2.83;;;2.15;;
41689;SDS011;27372;42.658;23.256;2023-11-18T04:40:37;2.47;;;2.25;;
41689;SDS011;27372;42.658;23.256;2023-11-18T04:43:06;2.63;;;2.42;;
41689;SDS011;27372;42.658;23.256;2023-11-18T04:45:32;3.50;;;2.55;;
41689;SDS011;27372;42.658;23.256;2023-11-18T04:47:59;2.53;;;1.98;;
41689;SDS011;27372;42.658;23.256;2023-11-18T04:50:24;5.18;;;2.50;;
41689;SDS011;27372;42.658;23.256;2023-11-18T04:52:50;2.78;;;2.20;;
41689;SDS011;27372;42.658;23.256;2023-11-18T04:55:15;3.00;;;2.33;;
41689;SDS011;27372;42.658;23.256;2023-11-18T04:57:41;4.65;;;2.42;;
41689;SDS011;27372;42.658;23.256;2023-11-18T05:00:07;2.13;;;1.92;;
41689;SDS011;27372;42.658;23.256;2023-11-18T05:02:39;3.70;;;2.28;;
41689;SDS011;27372;42.658;23.256;2023-11-18T05:05:05;2.70;;;2.40;;
41689;SDS011;27372;42.658;23.256;2023-11-18T05:07:31;2.83;;;2.17;;
41689;SDS011;27372;42.658;23.256;2023-11-18T05:09:57;2.65;;;2.03;;
41689;SDS011;27372;42.658;23.256;2023-11-18T05:12:22;2.55;;;2.20;;
41689;SDS011;27372;42.658;23.256;2023-11-18T05:14:48;2.42;;;2.10;;
41689;SDS011;27372;42.658;23.256;2023-11-18T05:17:15;2.63;;;2.08;;
41689;SDS011;27372;42.658;23.256;2023-11-18T05:19:41;2.50;;;2.10;;
41689;SDS011;27372;42.658;23.256;2023-11-18T05:22:07;2.53;;;1.73;;
41689;SDS011;27372;42.658;23.256;2023-11-18T05:24:33;2.10;;;1.80;;
41689;SDS011;27372;42.658;23.256;2023-11-18T05:26:58;3.33;;;2.08;;
41689;SDS011;27372;42.658;23.256;2023-11-18T05:29:26;2.70;;;1.80;;
41689;SDS011;27372;42.658;23.256;2023-11-18T05:31:55;2.70;;;1.75;;
41689;SDS011;27372;42.658;23.256;2023-11-18T05:34:23;3.10;;;2.28;;
41689;SDS011;27372;42.658;23.256;2023-11-18T05:36:48;2.60;;;2.05;;
41689;SDS011;27372;42.658;23.256;2023-11-18T05:39:19;2.53;;;2.00;;
41689;SDS011;27372;42.658;23.256;2023-11-18T05:41:49;1.52;;;1.42;;
41689;SDS011;27372;42.658;23.256;2023-11-18T05:44:16;2.33;;;1.90;;
41689;SDS011;27372;42.658;23.256;2023-11-18T05:46:46;2.95;;;1.73;;
41689;SDS011;27372;42.658;23.256;2023-11-18T05:49:12;3.20;;;2.05;;
41689;SDS011;27372;42.658;23.256;2023-11-18T05:51:39;1.90;;;1.70;;
41689;SDS011;27372;42.658;23.256;2023-11-18T05:54:06;1.45;;;1.30;;
41689;SDS011;27372;42.658;23.256;2023-11-18T05:56:31;1.95;;;1.60;;
41689;SDS011;27372;42.658;23.256;2023-11-18T05:58:57;1.60;;;1.50;;
41689;SDS011;27372;42.658;23.256;2023-11-18T06:01:23;1.90;;;1.50;;
41689;SDS011;27372;42.658;23.256;2023-11-18T06:03:53;2.38;;;2.03;;
41689;SDS011;27372;42.658;23.256;2023-11-18T06:06:18;2.60;;;1.80;;
41689;SDS011;27372;42.658;23.256;2023-11-18T06:08:46;2.35;;;1.77;;
41689;SDS011;27372;42.658;23.256;2023-11-18T06:11:13;1.77;;;1.52;;
41689;SDS011;27372;42.658;23.256;2023-11-18T06:13:44;1.40;;;1.30;;
41689;SDS011;27372;42.658;23.256;2023-11-18T06:16:18;1.60;;;1.50;;
41689;SDS011;27372;42.658;23.256;2023-11-18T06:18:45;1.30;;;1.20;;
41689;SDS011;27372;42.658;23.256;2023-11-18T06:21:15;1.83;;;1.40;;
41689;SDS011;27372;42.658;23.256;2023-11-18T06:23:54;1.08;;;1.08;;
41689;SDS011;27372;42.658;23.256;2023-11-18T06:26:20;1.63;;;1.50;;
41689;SDS011;27372;42.658;23.256;2023-11-18T06:28:47;1.75;;;1.33;;
41689;SDS011;27372;42.658;23.256;2023-11-18T06:31:16;1.95;;;1.40;;
41689;SDS011;27372;42.658;23.256;2023-11-18T06:33:42;1.30;;;1.20;;
41689;SDS011;27372;42.658;23.256;2023-11-18T06:36:18;2.85;;;1.50;;
41689;SDS011;27372;42.658;23.256;2023-11-18T06:38:46;2.20;;;1.60;;
41689;SDS011;27372;42.658;23.256;2023-11-18T06:41:12;1.90;;;1.10;;
41689;SDS011;27372;42.658;23.256;2023-11-18T06:43:41;1.35;;;1.23;;
41689;SDS011;27372;42.658;23.256;2023-11-18T06:46:20;2.47;;;1.40;;
41689;SDS011;27372;42.658;23.256;2023-11-18T06:48:50;1.50;;;1.20;;
41689;SDS011;27372;42.658;23.256;2023-11-18T06:51:20;1.20;;;1.10;;
41689;SDS011;27372;42.658;23.256;2023-11-18T06:53:49;0.93;;;0.90;;
41689;SDS011;27372;42.658;23.256;2023-11-18T06:56:20;0.95;;;0.95;;
41689;SDS011;27372;42.658;23.256;2023-11-18T06:58:45;1.00;;;1.00;;
41689;SDS011;27372;42.658;23.256;2023-11-18T07:01:14;1.45;;;1.10;;
41689;SDS011;27372;42.658;23.256;2023-11-18T07:03:41;1.30;;;1.20;;
41689;SDS011;27372;42.658;23.256;2023-11-18T07:06:07;1.23;;;1.10;;
41689;SDS011;27372;42.658;23.256;2023-11-18T07:08:34;1.00;;;1.00;;
41689;SDS011;27372;42.658;23.256;2023-11-18T07:11:03;0.95;;;0.88;;
41689;SDS011;27372;42.658;23.256;2023-11-18T07:13:28;1.30;;;1.00;;
41689;SDS011;27372;42.658;23.256;2023-11-18T07:15:54;1.20;;;1.08;;
41689;SDS011;27372;42.658;23.256;2023-11-18T07:18:22;1.30;;;1.00;;
41689;SDS011;27372;42.658;23.256;2023-11-18T07:20:48;1.20;;;1.10;;
41689;SDS011;27372;42.658;23.256;2023-11-18T07:23:16;0.80;;;0.80;;
41689;SDS011;27372;42.658;23.256;2023-11-18T07:25:42;1.08;;;1.02;;
41689;SDS011;27372;42.658;23.256;2023-11-18T07:28:09;0.98;;;0.98;;
41689;SDS011;27372;42.658;23.256;2023-11-18T07:30:34;1.00;;;1.00;;
41689;SDS011;27372;42.658;23.256;2023-11-18T07:33:02;1.10;;;1.00;;
41689;SDS011;27372;42.658;23.256;2023-11-18T07:35:27;1.20;;;1.10;;
41689;SDS011;27372;42.658;23.256;2023-11-18T07:37:53;0.85;;;0.80;;
41689;SDS011;27372;42.658;23.256;2023-11-18T07:40:18;1.30;;;1.02;;
41689;SDS011;27372;42.658;23.256;2023-11-18T07:42:53;1.52;;;1.20;;
41689;SDS011;27372;42.658;23.256;2023-11-18T07:45:21;1.48;;;1.27;;
41689;SDS011;27372;42.658;23.256;2023-11-18T07:47:49;1.40;;;1.10;;
41689;SDS011;27372;42.658;23.256;2023-11-18T07:50:16;4.55;;;2.33;;
41689;SDS011;27372;42.658;23.256;2023-11-18T07:52:44;1.92;;;1.20;;
41689;SDS011;27372;42.658;23.256;2023-11-18T07:55:10;2.33;;;1.50;;
41689;SDS011;27372;42.658;23.256;2023-11-18T07:57:37;1.20;;;1.10;;
41689;SDS011;27372;42.658;23.256;2023-11-18T08:00:02;1.50;;;1.20;;
41689;SDS011;27372;42.658;23.256;2023-11-18T08:02:34;2.47;;;1.40;;
41689;SDS011;27372;42.658;23.256;2023-11-18T08:05:06;1.13;;;1.13;;
41689;SDS011;27372;42.658;23.256;2023-11-18T08:07:38;1.50;;;1.20;;
41689;SDS011;27372;42.658;23.256;2023-11-18T08:10:05;1.13;;;1.10;;
41689;SDS011;27372;42.658;23.256;2023-11-18T08:12:32;1.75;;;1.15;;
41689;SDS011;27372;42.658;23.256;2023-11-18T08:14:58;1.20;;;1.10;;
41689;SDS011;27372;42.658;23.256;2023-11-18T08:17:25;0.90;;;0.90;;
41689;SDS011;27372;42.658;23.256;2023-11-18T08:19:53;1.25;;;1.10;;
41689;SDS011;27372;42.658;23.256;2023-11-18T08:22:19;0.90;;;0.90;;
41689;SDS011;27372;42.658;23.256;2023-11-18T08:24:48;2.50;;;1.63;;
41689;SDS011;27372;42.658;23.256;2023-11-18T08:27:14;2.45;;;1.50;;
41689;SDS011;27372;42.658;23.256;2023-11-18T08:29:39;1.42;;;1.20;;
41689;SDS011;27372;42.658;23.256;2023-11-18T08:32:05;1.30;;;1.20;;
41689;SDS011;27372;42.658;23.256;2023-11-18T08:34:34;1.00;;;0.90;;
41689;SDS011;27372;42.658;23.256;2023-11-18T08:37:03;1.55;;;1.30;;
41689;SDS011;27372;42.658;23.256;2023-11-18T08:39:29;1.60;;;1.25;;
41689;SDS011;27372;42.658;23.256;2023-11-18T08:41:55;4.95;;;1.92;;
41689;SDS011;27372;42.658;23.256;2023-11-18T08:44:21;1.27;;;0.88;;
41689;SDS011;27372;42.658;23.256;2023-11-18T08:46:48;3.03;;;2.20;;
41689;SDS011;27372;42.658;23.256;2023-11-18T08:49:17;7.75;;;4.35;;
41689;SDS011;27372;42.658;23.256;2023-11-18T08:51:49;4.05;;;2.92;;
41689;SDS011;27372;42.658;23.256;2023-11-18T08:54:24;3.47;;;2.33;;
41689;SDS011;27372;42.658;23.256;2023-11-18T08:57:02;0.95;;;0.93;;
41689;SDS011;27372;42.658;23.256;2023-11-18T08:59:29;1.30;;;1.20;;
41689;SDS011;27372;42.658;23.256;2023-11-18T09:01:55;1.52;;;1.42;;
41689;SDS011;27372;42.658;23.256;2023-11-18T09:04:24;3.00;;;1.70;;
41689;SDS011;27372;42.658;23.256;2023-11-18T09:06:50;3.22;;;1.70;;
41689;SDS011;27372;42.658;23.256;2023-11-18T09:11:54;1.27;;;1.17;;
41689;SDS011;27372;42.658;23.256;2023-11-18T09:14:21;1.23;;;1.13;;
41689;SDS011;27372;42.658;23.256;2023-11-18T09:16:49;4.57;;;3.23;;
41689;SDS011;27372;42.658;23.256;2023-11-18T09:19:15;1.40;;;1.15;;
41689;SDS011;27372;42.658;23.256;2023-11-18T09:21:42;1.30;;;1.20;;
41689;SDS011;27372;42.658;23.256;2023-11-18T09:24:08;1.77;;;1.40;;
41689;SDS011;27372;42.658;23.256;2023-11-18T09:26:37;1.52;;;1.25;;
41689;SDS011;27372;42.658;23.256;2023-11-18T09:29:02;1.33;;;1.20;;
41689;SDS011;27372;42.658;23.256;2023-11-18T09:31:28;1.15;;;1.10;;
41689;SDS011;27372;42.658;23.256;2023-11-18T09:33:54;2.05;;;1.23;;
41689;SDS011;27372;42.658;23.256;2023-11-18T09:36:22;1.63;;;1.42;;
41689;SDS011;27372;42.658;23.256;2023-11-18T09:38:48;4.85;;;2.20;;
41689;SDS011;27372;42.658;23.256;2023-11-18T09:41:14;1.92;;;1.20;;
41689;SDS011;27372;42.658;23.256;2023-11-18T09:43:41;1.33;;;1.20;;
41689;SDS011;27372;42.658;23.256;2023-11-18T09:46:10;1.25;;;1.00;;
41689;SDS011;27372;42.658;23.256;2023-11-18T09:48:43;1.40;;;1.30;;
41689;SDS011;27372;42.658;23.256;2023-11-18T09:51:25;1.55;;;1.35;;
41689;SDS011;27372;42.658;23.256;2023-11-18T09:53:57;1.25;;;1.15;;
41689;SDS011;27372;42.658;23.256;2023-11-18T09:56:44;1.77;;;1.40;;
41689;SDS011;27372;42.658;23.256;2023-11-18T09:59:29;1.50;;;1.40;;
41689;SDS011;27372;42.658;23.256;2023-11-18T10:02:02;2.30;;;1.50;;
41689;SDS011;27372;42.658;23.256;2023-11-18T10:04:38;1.38;;;1.08;;
41689;SDS011;27372;42.658;23.256;2023-11-18T10:07:05;1.20;;;1.10;;
41689;SDS011;27372;42.658;23.256;2023-11-18T10:09:32;1.05;;;1.05;;
41689;SDS011;27372;42.658;23.256;2023-11-18T10:12:05;1.30;;;1.20;;
41689;SDS011;27372;42.658;23.256;2023-11-18T10:14:36;1.70;;;1.30;;
41689;SDS011;27372;42.658;23.256;2023-11-18T10:17:07;1.40;;;1.10;;
41689;SDS011;27372;42.658;23.256;2023-11-18T10:19:49;1.27;;;1.17;;
41689;SDS011;27372;42.658;23.256;2023-11-18T10:22:24;0.90;;;0.90;;
41689;SDS011;27372;42.658;23.256;2023-11-18T10:24:51;1.15;;;1.05;;
41689;SDS011;27372;42.658;23.256;2023-11-18T10:27:20;1.40;;;1.30;;
41689;SDS011;27372;42.658;23.256;2023-11-18T10:29:48;0.88;;;0.88;;
41689;SDS011;27372;42.658;23.256;2023-11-18T10:32:14;2.13;;;1.52;;
41689;SDS011;27372;42.658;23.256;2023-11-18T10:34:45;1.20;;;1.10;;
41689;SDS011;27372;42.658;23.256;2023-11-18T10:37:10;1.30;;;1.20;;
41689;SDS011;27372;42.658;23.256;2023-11-18T10:39:36;1.55;;;1.30;;
41689;SDS011;27372;42.658;23.256;2023-11-18T10:42:02;1.50;;;1.40;;
41689;SDS011;27372;42.658;23.256;2023-11-18T10:44:28;2.15;;;1.52;;
41689;SDS011;27372;42.658;23.256;2023-11-18T10:46:54;1.77;;;1.58;;
41689;SDS011;27372;42.658;23.256;2023-11-18T10:49:23;1.52;;;1.42;;
41689;SDS011;27372;42.658;23.256;2023-11-18T10:51:53;4.05;;;2.72;;
41689;SDS011;27372;42.658;23.256;2023-11-18T10:54:21;1.33;;;1.23;;
41689;SDS011;27372;42.658;23.256;2023-11-18T10:56:47;1.55;;;1.38;;
41689;SDS011;27372;42.658;23.256;2023-11-18T10:59:15;1.85;;;1.38;;
41689;SDS011;27372;42.658;23.256;2023-11-18T11:01:42;1.17;;;1.00;;
41689;SDS011;27372;42.658;23.256;2023-11-18T11:04:08;1.40;;;1.30;;
41689;SDS011;27372;42.658;23.256;2023-11-18T11:06:35;1.85;;;1.55;;
41689;SDS011;27372;42.658;23.256;2023-11-18T11:09:06;1.30;;;1.20;;
41689;SDS011;27372;42.658;23.256;2023-11-18T11:11:43;1.25;;;1.15;;
41689;SDS011;27372;42.658;23.256;2023-11-18T11:14:14;1.73;;;1.17;;
41689;SDS011;27372;42.658;23.256;2023-11-18T11:16:45;1.38;;;1.27;;
41689;SDS011;27372;42.658;23.256;2023-11-18T11:19:26;1.58;;;1.38;;
41689;SDS011;27372;42.658;23.256;2023-11-18T11:22:06;2.53;;;1.50;;
41689;SDS011;27372;42.658;23.256;2023-11-18T11:24:45;2.72;;;1.88;;
41689;SDS011;27372;42.658;23.256;2023-11-18T11:27:32;1.48;;;1.33;;
41689;SDS011;27372;42.658;23.256;2023-11-18T11:30:09;7.38;;;3.78;;
41689;SDS011;27372;42.658;23.256;2023-11-18T11:32:52;1.17;;;1.00;;
41689;SDS011;27372;42.658;23.256;2023-11-18T11:35:27;3.70;;;1.50;;
41689;SDS011;27372;42.658;23.256;2023-11-18T11:37:56;1.80;;;1.50;;
41689;SDS011;27372;42.658;23.256;2023-11-18T11:40:30;2.05;;;1.50;;
41689;SDS011;27372;42.658;23.256;2023-11-18T11:42:56;3.15;;;1.75;;
41689;SDS011;27372;42.658;23.256;2023-11-18T11:45:26;1.95;;;1.40;;
41689;SDS011;27372;42.658;23.256;2023-11-18T11:47:59;3.03;;;2.30;;
41689;SDS011;27372;42.658;23.256;2023-11-18T11:53:33;2.70;;;1.80;;
41689;SDS011;27372;42.658;23.256;2023-11-18T11:56:04;2.83;;;2.10;;
41689;SDS011;27372;42.658;23.256;2023-11-18T11:58:34;4.70;;;2.05;;
41689;SDS011;27372;42.658;23.256;2023-11-18T12:03:58;3.75;;;2.40;;
41689;SDS011;27372;42.658;23.256;2023-11-18T12:06:31;2.83;;;1.70;;
41689;SDS011;27372;42.658;23.256;2023-11-18T12:08:59;4.00;;;1.90;;
41689;SDS011;27372;42.658;23.256;2023-11-18T12:11:24;3.85;;;2.38;;
41689;SDS011;27372;42.658;23.256;2023-11-18T12:17:06;4.45;;;2.97;;
41689;SDS011;27372;42.658;23.256;2023-11-18T12:19:37;3.45;;;2.20;;
41689;SDS011;27372;42.658;23.256;2023-11-18T12:22:15;4.13;;;2.17;;
41689;SDS011;27372;42.658;23.256;2023-11-18T12:35:41;1.50;;;1.40;;
41689;SDS011;27372;42.658;23.256;2023-11-18T12:41:37;1.63;;;1.23;;
41689;SDS011;27372;42.658;23.256;2023-11-18T12:49:15;1.77;;;1.30;;
41689;SDS011;27372;42.658;23.256;2023-11-18T12:51:42;1.90;;;1.52;;
41689;SDS011;27372;42.658;23.256;2023-11-18T12:54:11;2.05;;;1.85;;
41689;SDS011;27372;42.658;23.256;2023-11-18T12:56:37;1.80;;;1.55;;
41689;SDS011;27372;42.658;23.256;2023-11-18T12:59:09;5.15;;;2.30;;
41689;SDS011;27372;42.658;23.256;2023-11-18T13:01:38;2.17;;;1.80;;
41689;SDS011;27372;42.658;23.256;2023-11-18T13:04:06;2.38;;;1.65;;
41689;SDS011;27372;42.658;23.256;2023-11-18T13:06:33;4.50;;;3.05;;
41689;SDS011;27372;42.658;23.256;2023-11-18T13:08:59;2.28;;;1.80;;
41689;SDS011;27372;42.658;23.256;2023-11-18T13:11:30;3.97;;;2.45;;
41689;SDS011;27372;42.658;23.256;2023-11-18T13:13:56;5.10;;;2.42;;
41689;SDS011;27372;42.658;23.256;2023-11-18T13:16:22;2.33;;;1.67;;
41689;SDS011;27372;42.658;23.256;2023-11-18T13:18:50;1.95;;;1.65;;
41689;SDS011;27372;42.658;23.256;2023-11-18T13:21:17;4.43;;;3.10;;
41689;SDS011;27372;42.658;23.256;2023-11-18T13:23:47;4.70;;;2.80;;
41689;SDS011;27372;42.658;23.256;2023-11-18T13:26:14;2.10;;;1.80;;
41689;SDS011;27372;42.658;23.256;2023-11-18T13:28:40;4.00;;;3.00;;
41689;SDS011;27372;42.658;23.256;2023-11-18T13:31:06;4.22;;;2.92;;
41689;SDS011;27372;42.658;23.256;2023-11-18T13:33:38;4.93;;;2.22;;
41689;SDS011;27372;42.658;23.256;2023-11-18T13:36:04;4.93;;;2.42;;
41689;SDS011;27372;42.658;23.256;2023-11-18T13:38:36;2.67;;;2.22;;
41689;SDS011;27372;42.658;23.256;2023-11-18T13:41:02;2.92;;;1.73;;
41689;SDS011;27372;42.658;23.256;2023-11-18T13:43:40;4.20;;;2.40;;
41689;SDS011;27372;42.658;23.256;2023-11-18T13:46:12;5.78;;;2.97;;
41689;SDS011;27372;42.658;23.256;2023-11-18T13:48:39;3.22;;;2.20;;
41689;SDS011;27372;42.658;23.256;2023-11-18T13:51:06;2.42;;;1.95;;
41689;SDS011;27372;42.658;23.256;2023-11-18T13:53:37;2.45;;;2.00;;
41689;SDS011;27372;42.658;23.256;2023-11-18T13:56:04;3.47;;;2.10;;
41689;SDS011;27372;42.658;23.256;2023-11-18T13:58:31;12.43;;;4.97;;
41689;SDS011;27372;42.658;23.256;2023-11-18T14:00:57;5.70;;;2.00;;
41689;SDS011;27372;42.658;23.256;2023-11-18T14:03:24;2.65;;;2.10;;
41689;SDS011;27372;42.658;23.256;2023-11-18T14:05:51;2.65;;;2.30;;
41689;SDS011;27372;42.658;23.256;2023-11-18T14:08:17;1.90;;;1.80;;
41689;SDS011;27372;42.658;23.256;2023-11-18T14:10:44;4.13;;;2.33;;
41689;SDS011;27372;42.658;23.256;2023-11-18T14:13:10;3.42;;;2.50;;
41689;SDS011;27372;42.658;23.256;2023-11-18T14:15:40;3.63;;;2.70;;
41689;SDS011;27372;42.658;23.256;2023-11-18T14:18:08;4.72;;;2.47;;
41689;SDS011;27372;42.658;23.256;2023-11-18T14:20:34;2.72;;;2.28;;
41689;SDS011;27372;42.658;23.256;2023-11-18T14:23:00;3.95;;;2.45;;
41689;SDS011;27372;42.658;23.256;2023-11-18T14:25:28;3.10;;;2.00;;
41689;SDS011;27372;42.658;23.256;2023-11-18T14:27:54;4.13;;;2.63;;
41689;SDS011;27372;42.658;23.256;2023-11-18T14:30:19;4.22;;;3.00;;
41689;SDS011;27372;42.658;23.256;2023-11-18T14:32:45;5.18;;;2.97;;
41689;SDS011;27372;42.658;23.256;2023-11-18T14:35:11;5.85;;;2.75;;
41689;SDS011;27372;42.658;23.256;2023-11-18T14:37:42;8.55;;;4.95;;
41689;SDS011;27372;42.658;23.256;2023-11-18T14:40:10;4.50;;;2.93;;
41689;SDS011;27372;42.658;23.256;2023-11-18T14:42:46;2.92;;;2.10;;
41689;SDS011;27372;42.658;23.256;2023-11-18T14:45:15;4.13;;;2.78;;
41689;SDS011;27372;42.658;23.256;2023-11-18T14:47:41;4.30;;;2.75;;
41689;SDS011;27372;42.658;23.256;2023-11-18T14:50:12;4.10;;;2.95;;
41689;SDS011;27372;42.658;23.256;2023-11-18T14:52:47;5.25;;;3.42;;
41689;SDS011;27372;42.658;23.256;2023-11-18T14:55:17;7.32;;;4.25;;
41689;SDS011;27372;42.658;23.256;2023-11-18T14:57:43;2.85;;;2.47;;
41689;SDS011;27372;42.658;23.256;2023-11-18T15:00:10;4.32;;;2.97;;
41689;SDS011;27372;42.658;23.256;2023-11-18T15:02:48;4.90;;;2.75;;
41689;SDS011;27372;42.658;23.256;2023-11-18T15:05:15;3.75;;;2.95;;
41689;SDS011;27372;42.658;23.256;2023-11-18T15:10:10;2.38;;;1.98;;
41689;SDS011;27372;42.658;23.256;2023-11-18T15:12:36;4.43;;;2.80;;
41689;SDS011;27372;42.658;23.256;2023-11-18T15:15:02;4.57;;;3.20;;